Private Wetterstation Wechselburg
Wetterdaten: Sonntag, 19.10.2014
Datum Zeit Temp. +2m Bodentemp. Temp.+5cm Temp. Wind Windchill X Diff Temp. Feuchte +2m Feuchte +5cm Sonnenschein Luftdruck Regen Wind Richtung Richtung Sonnenschein UV Taupunkt Windchill Windben
19.10.2014 00:00 7,9 C 26,2 C 9,4 C 8,4 C 8,4 C 0,5 C 89 % 91 % 0 % 1022,8 hPa 0,0 l/m 0,0 km/h (0 Bft) W-SW 247 0 min 0,0 UV-I 6,2 C 8,4 C 0,0 km/h (0 Bft)
19.10.2014 00:05 7,9 C 26,2 C 9,5 C 8,3 C 8,3 C 0,4 C 89 % 91 % 0 % 1022,8 hPa 0,0 l/m 0,0 km/h (0 Bft) SW 225 0 min 0,0 UV-I 6,2 C 8,3 C 0,0 km/h (0 Bft)
19.10.2014 00:10 7,8 C 26,2 C 9,3 C 8,2 C 8,2 C 0,4 C 89 % 92 % 0 % 1022,5 hPa 0,0 l/m 0,0 km/h (0 Bft) SW 225 0 min 0,0 UV-I 6,1 C 8,2 C 0,0 km/h (0 Bft)
19.10.2014 00:15 7,9 C 26,2 C 9,2 C 8,2 C 8,2 C 0,3 C 89 % 92 % 0 % 1022,5 hPa 0,0 l/m 0,0 km/h (0 Bft) SW 225 0 min 0,0 UV-I 6,2 C 8,2 C 0,0 km/h (0 Bft)
19.10.2014 00:20 7,7 C 26,2 C 9,1 C 8,0 C 8,0 C 0,3 C 89 % 92 % 0 % 1022,5 hPa 0,0 l/m 0,0 km/h (0 Bft) SW 225 0 min 0,0 UV-I 6,0 C 8,0 C 0,0 km/h (0 Bft)
19.10.2014 00:25 7,6 C 26,2 C 9,1 C 8,1 C 8,1 C 0,5 C 89 % 92 % 0 % 1022,5 hPa 0,0 l/m 0,0 km/h (0 Bft) SO 135 0 min 0,0 UV-I 5,9 C 8,1 C 0,0 km/h (0 Bft)
19.10.2014 00:30 7,7 C 26,2 C 8,9 C 7,9 C 7,9 C 0,2 C 89 % 92 % 0 % 1022,2 hPa 0,0 l/m 0,0 km/h (0 Bft) SO 135 0 min 0,0 UV-I 6,0 C 7,9 C 0,0 km/h (0 Bft)
19.10.2014 00:35 7,6 C 26,2 C 8,9 C 7,9 C 7,9 C 0,3 C 89 % 92 % 0 % 1022,2 hPa 0,0 l/m 0,0 km/h (0 Bft) SO 135 0 min 0,0 UV-I 5,9 C 7,9 C 0,0 km/h (0 Bft)
19.10.2014 00:40 7,5 C 26,1 C 8,9 C 7,8 C 7,8 C 0,3 C 89 % 92 % 0 % 1022,2 hPa 0,0 l/m 0,0 km/h (0 Bft) SO 135 0 min 0,0 UV-I 5,8 C 7,8 C 0,0 km/h (0 Bft)
19.10.2014 00:45 7,5 C 26,1 C 8,8 C 7,8 C 7,8 C 0,3 C 89 % 92 % 0 % 1022,2 hPa 0,0 l/m 0,0 km/h (0 Bft) SO 135 0 min 0,0 UV-I 5,8 C 7,8 C 0,0 km/h (0 Bft)
19.10.2014 00:50 7,3 C 26,1 C 8,9 C 7,7 C 7,7 C 0,4 C 89 % 92 % 0 % 1022,3 hPa 0,0 l/m 0,0 km/h (0 Bft) SO 135 0 min 0,0 UV-I 5,6 C 7,7 C 0,0 km/h (0 Bft)
19.10.2014 00:55 7,2 C 26,1 C 8,8 C 7,7 C 7,7 C 0,5 C 89 % 92 % 0 % 1022,3 hPa 0,0 l/m 0,0 km/h (0 Bft) SO 135 0 min 0,0 UV-I 5,5 C 7,7 C 0,0 km/h (0 Bft)
19.10.2014 01:00 7,2 C 26,1 C 8,8 C 7,7 C 7,7 C 0,5 C 89 % 92 % 0 % 1022,3 hPa 0,0 l/m 0,0 km/h (0 Bft) SO 135 0 min 0,0 UV-I 5,5 C 7,7 C 0,0 km/h (0 Bft)
19.10.2014 01:05 7,3 C 26,1 C 8,8 C 7,9 C 7,9 C 0,6 C 90 % 92 % 0 % 1022,3 hPa 0,0 l/m 0,0 km/h (0 Bft) SO 135 0 min 0,0 UV-I 5,8 C 7,9 C 0,0 km/h (0 Bft)
19.10.2014 01:10 7,3 C 26,1 C 8,7 C 7,9 C 7,9 C 0,6 C 90 % 92 % 0 % 1022,2 hPa 0,0 l/m 0,0 km/h (0 Bft) SO 135 0 min 0,0 UV-I 5,8 C 7,9 C 0,0 km/h (0 Bft)
19.10.2014 01:15 7,2 C 26,2 C 8,7 C 7,8 C 7,8 C 0,6 C 90 % 92 % 0 % 1022,2 hPa 0,0 l/m 0,0 km/h (0 Bft) SO 135 0 min 0,0 UV-I 5,7 C 7,8 C 0,0 km/h (0 Bft)
19.10.2014 01:20 7,2 C 26,1 C 8,7 C 7,7 C 7,7 C 0,5 C 90 % 92 % 0 % 1022,2 hPa 0,0 l/m 0,0 km/h (0 Bft) W-SW 247 0 min 0,0 UV-I 5,7 C 7,7 C 0,0 km/h (0 Bft)
19.10.2014 01:25 7,1 C 26,1 C 8,7 C 7,6 C 7,6 C 0,5 C 90 % 92 % 0 % 1022,2 hPa 0,0 l/m 0,0 km/h (0 Bft) W-SW 247 0 min 0,0 UV-I 5,6 C 7,6 C 0,0 km/h (0 Bft)
19.10.2014 01:30 7,1 C 26,1 C 8,5 C 7,4 C 7,4 C 0,3 C 90 % 92 % 0 % 1022,1 hPa 0,0 l/m 0,0 km/h (0 Bft) W-SW 247 0 min 0,0 UV-I 5,6 C 7,4 C 0,0 km/h (0 Bft)
19.10.2014 01:35 6,9 C 26,1 C 8,4 C 7,4 C 7,4 C 0,5 C 90 % 91 % 0 % 1022,1 hPa 0,0 l/m 0,0 km/h (0 Bft) W-SW 247 0 min 0,0 UV-I 5,4 C 7,4 C 0,0 km/h (0 Bft)
19.10.2014 01:40 6,8 C 26,1 C 8,3 C 7,3 C 7,3 C 0,5 C 90 % 91 % 0 % 1022,1 hPa 0,0 l/m 0,0 km/h (0 Bft) W-SW 247 0 min 0,0 UV-I 5,3 C 7,3 C 0,0 km/h (0 Bft)
19.10.2014 01:45 6,8 C 26,1 C 8,3 C 7,3 C 7,3 C 0,5 C 90 % 91 % 0 % 1022,1 hPa 0,0 l/m 0,0 km/h (0 Bft) W-SW 247 0 min 0,0 UV-I 5,3 C 7,3 C 0,0 km/h (0 Bft)
19.10.2014 01:50 6,8 C 26,1 C 8,3 C 7,2 C 7,2 C 0,4 C 90 % 91 % 0 % 1021,9 hPa 0,0 l/m 0,0 km/h (0 Bft) W-SW 247 0 min 0,0 UV-I 5,3 C 7,2 C 0,0 km/h (0 Bft)
19.10.2014 01:55 6,8 C 26,1 C 8,3 C 7,2 C 7,2 C 0,4 C 90 % 91 % 0 % 1021,9 hPa 0,0 l/m 0,0 km/h (0 Bft) W-SW 247 0 min 0,0 UV-I 5,3 C 7,2 C 0,0 km/h (0 Bft)
19.10.2014 02:00 6,8 C 26,1 C 8,3 C 7,2 C 7,2 C 0,4 C 90 % 91 % 0 % 1021,9 hPa 0,0 l/m 0,0 km/h (0 Bft) W-SW 247 0 min 0,0 UV-I 5,3 C 7,2 C 0,0 km/h (0 Bft)
19.10.2014 02:05 6,8 C 26,0 C 8,1 C 7,2 C 7,2 C 0,4 C 90 % 91 % 0 % 1021,9 hPa 0,0 l/m 0,0 km/h (0 Bft) W-SW 247 0 min 0,0 UV-I 5,3 C 7,2 C 0,0 km/h (0 Bft)
19.10.2014 02:10 6,7 C 26,0 C 8,1 C 7,0 C 7,0 C 0,3 C 90 % 91 % 0 % 1021,7 hPa 0,0 l/m 0,0 km/h (0 Bft) W-SW 247 0 min 0,0 UV-I 5,2 C 7,0 C 0,0 km/h (0 Bft)
19.10.2014 02:15 6,7 C 26,0 C 8,1 C 7,0 C 7,0 C 0,3 C 90 % 91 % 0 % 1021,7 hPa 0,0 l/m 0,0 km/h (0 Bft) W-SW 247 0 min 0,0 UV-I 5,2 C 7,0 C 0,0 km/h (0 Bft)
19.10.2014 02:20 6,7 C 26,0 C 8,1 C 6,9 C 6,9 C 0,2 C 90 % 91 % 0 % 1021,7 hPa 0,0 l/m 0,0 km/h (0 Bft) W-SW 247 0 min 0,0 UV-I 5,2 C 6,9 C 0,0 km/h (0 Bft)
19.10.2014 02:25 6,7 C 25,9 C 8,1 C 6,9 C 6,9 C 0,2 C 90 % 91 % 0 % 1021,7 hPa 0,0 l/m 0,0 km/h (0 Bft) W-SW 247 0 min 0,0 UV-I 5,2 C 6,9 C 0,0 km/h (0 Bft)
19.10.2014 02:30 6,6 C 25,9 C 8,1 C 6,9 C 6,9 C 0,3 C 90 % 92 % 0 % 1021,8 hPa 0,0 l/m 0,0 km/h (0 Bft) W 270 0 min 0,0 UV-I 5,1 C 6,9 C 0,0 km/h (0 Bft)
19.10.2014 02:35 6,7 C 25,9 C 8,1 C 6,9 C 6,9 C 0,2 C 90 % 92 % 0 % 1021,8 hPa 0,0 l/m 0,0 km/h (0 Bft) W-SW 247 0 min 0,0 UV-I 5,2 C 6,9 C 0,0 km/h (0 Bft)
19.10.2014 02:40 6,5 C 26,0 C 8,0 C 6,9 C 6,9 C 0,4 C 90 % 92 % 0 % 1021,8 hPa 0,0 l/m 0,0 km/h (0 Bft) SW 225 0 min 0,0 UV-I 5,0 C 6,9 C 0,0 km/h (0 Bft)
19.10.2014 02:45 6,5 C 26,0 C 8,0 C 6,9 C 6,9 C 0,4 C 90 % 92 % 0 % 1021,8 hPa 0,0 l/m 0,0 km/h (0 Bft) W-SW 247 0 min 0,0 UV-I 5,0 C 6,9 C 0,0 km/h (0 Bft)
19.10.2014 02:50 6,5 C 25,9 C 8,0 C 6,9 C 6,9 C 0,4 C 90 % 92 % 0 % 1021,6 hPa 0,0 l/m 0,0 km/h (0 Bft) SW 225 0 min 0,0 UV-I 5,0 C 6,9 C 0,0 km/h (0 Bft)
19.10.2014 02:55 6,4 C 25,9 C 8,0 C 6,9 C 6,9 C 0,5 C 90 % 92 % 0 % 1021,6 hPa 0,0 l/m 0,0 km/h (0 Bft) SW 225 0 min 0,0 UV-I 4,9 C 6,9 C 0,0 km/h (0 Bft)
19.10.2014 03:00 6,4 C 26,0 C 8,0 C 6,9 C 6,9 C 0,5 C 90 % 92 % 0 % 1021,6 hPa 0,0 l/m 0,0 km/h (0 Bft) S 180 0 min 0,0 UV-I 4,9 C 6,9 C 0,0 km/h (0 Bft)
19.10.2014 03:05 6,5 C 26,0 C 8,0 C 6,9 C 6,9 C 0,4 C 90 % 92 % 0 % 1021,6 hPa 0,0 l/m 0,0 km/h (0 Bft) O-SO 112 0 min 0,0 UV-I 5,0 C 6,9 C 0,0 km/h (0 Bft)
19.10.2014 03:10 6,5 C 25,9 C 7,9 C 7,0 C 7,0 C 0,5 C 90 % 92 % 0 % 1021,6 hPa 0,0 l/m 0,0 km/h (0 Bft) O-SO 112 0 min 0,0 UV-I 5,0 C 7,0 C 0,0 km/h (0 Bft)
19.10.2014 03:15 6,5 C 25,9 C 7,9 C 7,0 C 7,0 C 0,5 C 90 % 92 % 0 % 1021,6 hPa 0,0 l/m 0,0 km/h (0 Bft) O-SO 112 0 min 0,0 UV-I 5,0 C 7,0 C 0,0 km/h (0 Bft)
19.10.2014 03:20 6,6 C 25,9 C 7,9 C 7,2 C 7,2 C 0,6 C 91 % 92 % 0 % 1021,6 hPa 0,0 l/m 0,0 km/h (0 Bft) O-SO 112 0 min 0,0 UV-I 5,2 C 7,2 C 0,0 km/h (0 Bft)
19.10.2014 03:25 6,5 C 25,9 C 7,9 C 7,2 C 7,2 C 0,7 C 91 % 92 % 0 % 1021,6 hPa 0,0 l/m 0,0 km/h (0 Bft) O-NO 67 0 min 0,0 UV-I 5,1 C 7,2 C 0,0 km/h (0 Bft)
19.10.2014 03:30 6,6 C 25,9 C 7,9 C 7,3 C 7,3 C 0,7 C 91 % 92 % 0 % 1021,8 hPa 0,0 l/m 0,0 km/h (0 Bft) O-NO 67 0 min 0,0 UV-I 5,2 C 7,3 C 0,0 km/h (0 Bft)
19.10.2014 03:35 6,6 C 25,9 C 7,9 C 7,4 C 7,4 C 0,8 C 91 % 92 % 0 % 1021,8 hPa 0,0 l/m 0,0 km/h (0 Bft) O-NO 67 0 min 0,0 UV-I 5,2 C 7,4 C 0,0 km/h (0 Bft)
19.10.2014 03:40 6,7 C 25,9 C 8,0 C 7,2 C 7,2 C 0,5 C 91 % 92 % 0 % 1021,8 hPa 0,0 l/m 0,0 km/h (0 Bft) O-NO 67 0 min 0,0 UV-I 5,3 C 7,2 C 0,0 km/h (0 Bft)
19.10.2014 03:45 6,6 C 25,9 C 7,9 C 7,2 C 7,2 C 0,6 C 91 % 92 % 0 % 1021,8 hPa 0,0 l/m 0,0 km/h (0 Bft) SW 225 0 min 0,0 UV-I 5,2 C 7,2 C 0,0 km/h (0 Bft)
19.10.2014 03:50 6,4 C 25,8 C 7,9 C 6,9 C 6,9 C 0,5 C 91 % 92 % 0 % 1021,7 hPa 0,0 l/m 0,0 km/h (0 Bft) W-SW 247 0 min 0,0 UV-I 5,0 C 6,9 C 0,0 km/h (0 Bft)
19.10.2014 03:55 6,5 C 25,9 C 7,9 C 6,9 C 6,9 C 0,4 C 91 % 92 % 0 % 1021,7 hPa 0,0 l/m 0,0 km/h (0 Bft) SO 135 0 min 0,0 UV-I 5,1 C 6,9 C 0,0 km/h (0 Bft)
19.10.2014 04:00 6,4 C 25,8 C 7,9 C 7,0 C 7,0 C 0,6 C 91 % 92 % 0 % 1021,7 hPa 0,0 l/m 0,0 km/h (0 Bft) SW 225 0 min 0,0 UV-I 5,0 C 7,0 C 0,0 km/h (0 Bft)
19.10.2014 04:05 6,5 C 25,9 C 7,8 C 7,0 C 7,0 C 0,5 C 91 % 92 % 0 % 1021,7 hPa 0,0 l/m 0,0 km/h (0 Bft) SO 135 0 min 0,0 UV-I 5,1 C 7,0 C 0,0 km/h (0 Bft)
19.10.2014 04:10 6,4 C 25,8 C 7,9 C 6,9 C 6,9 C 0,5 C 91 % 92 % 0 % 1021,9 hPa 0,0 l/m 0,0 km/h (0 Bft) SW 225 0 min 0,0 UV-I 5,0 C 6,9 C 0,0 km/h (0 Bft)
19.10.2014 04:15 6,3 C 25,8 C 7,9 C 6,9 C 6,9 C 0,6 C 91 % 92 % 0 % 1021,9 hPa 0,0 l/m 0,0 km/h (0 Bft) O-NO 67 0 min 0,0 UV-I 4,9 C 6,9 C 0,0 km/h (0 Bft)
19.10.2014 04:20 6,3 C 25,8 C 7,9 C 6,9 C 6,9 C 0,6 C 91 % 92 % 0 % 1021,9 hPa 0,0 l/m 0,0 km/h (0 Bft) W-SW 247 0 min 0,0 UV-I 4,9 C 6,9 C 0,0 km/h (0 Bft)
19.10.2014 04:25 6,3 C 25,8 C 7,7 C 6,9 C 6,9 C 0,6 C 91 % 92 % 0 % 1021,9 hPa 0,0 l/m 0,0 km/h (0 Bft) W 270 0 min 0,0 UV-I 4,9 C 6,9 C 0,0 km/h (0 Bft)
19.10.2014 04:30 6,3 C 25,7 C 7,6 C 6,8 C 6,8 C 0,5 C 91 % 92 % 0 % 1022,0 hPa 0,0 l/m 0,0 km/h (0 Bft) W 270 0 min 0,0 UV-I 4,9 C 6,8 C 0,0 km/h (0 Bft)
19.10.2014 04:35 6,2 C 25,7 C 7,7 C 6,7 C 6,7 C 0,5 C 91 % 92 % 0 % 1022,0 hPa 0,0 l/m 0,0 km/h (0 Bft) W 270 0 min 0,0 UV-I 4,8 C 6,7 C 0,0 km/h (0 Bft)
19.10.2014 04:40 6,1 C 25,7 C 7,6 C 6,7 C 6,7 C 0,6 C 91 % 92 % 0 % 1022,0 hPa 0,0 l/m 0,0 km/h (0 Bft) N 360 0 min 0,0 UV-I 4,7 C 6,7 C 0,0 km/h (0 Bft)
19.10.2014 04:45 6,1 C 25,7 C 7,6 C 6,7 C 6,7 C 0,6 C 91 % 92 % 0 % 1022,0 hPa 0,0 l/m 0,0 km/h (0 Bft) W 270 0 min 0,0 UV-I 4,7 C 6,7 C 0,0 km/h (0 Bft)
19.10.2014 04:50 6,1 C 25,7 C 7,7 C 6,6 C 6,6 C 0,5 C 91 % 92 % 0 % 1021,8 hPa 0,0 l/m 0,0 km/h (0 Bft) W-SW 247 0 min 0,0 UV-I 4,7 C 6,6 C 0,0 km/h (0 Bft)
19.10.2014 04:55 6,0 C 25,7 C 7,6 C 6,7 C 6,7 C 0,7 C 91 % 92 % 0 % 1021,8 hPa 0,0 l/m 0,0 km/h (0 Bft) W-SW 247 0 min 0,0 UV-I 4,6 C 6,7 C 0,0 km/h (0 Bft)
19.10.2014 05:00 6,1 C 25,7 C 7,6 C 6,8 C 6,8 C 0,7 C 91 % 92 % 0 % 1021,8 hPa 0,0 l/m 0,0 km/h (0 Bft) W-NW 292 0 min 0,0 UV-I 4,7 C 6,8 C 0,0 km/h (0 Bft)
19.10.2014 05:05 6,1 C 25,7 C 7,7 C 6,9 C 6,9 C 0,8 C 91 % 92 % 0 % 1021,8 hPa 0,0 l/m 0,0 km/h (0 Bft) O-SO 112 0 min 0,0 UV-I 4,7 C 6,9 C 0,0 km/h (0 Bft)
19.10.2014 05:10 6,3 C 25,7 C 7,7 C 6,9 C 6,9 C 0,6 C 91 % 92 % 0 % 1021,7 hPa 0,0 l/m 0,0 km/h (0 Bft) O-NO 67 0 min 0,0 UV-I 4,9 C 6,9 C 0,0 km/h (0 Bft)
19.10.2014 05:15 6,3 C 25,7 C 7,6 C 7,0 C 7,0 C 0,7 C 91 % 92 % 0 % 1021,7 hPa 0,0 l/m 0,0 km/h (0 Bft) W 270 0 min 0,0 UV-I 4,9 C 7,0 C 0,0 km/h (0 Bft)
19.10.2014 05:20 6,3 C 25,7 C 7,6 C 7,0 C 7,0 C 0,7 C 91 % 92 % 0 % 1021,7 hPa 0,0 l/m 0,0 km/h (0 Bft) W-SW 247 0 min 0,0 UV-I 4,9 C 7,0 C 0,0 km/h (0 Bft)
19.10.2014 05:25 6,2 C 25,7 C 7,6 C 6,9 C 6,9 C 0,7 C 91 % 92 % 0 % 1021,7 hPa 0,0 l/m 0,0 km/h (0 Bft) W 270 0 min 0,0 UV-I 4,8 C 6,9 C 0,0 km/h (0 Bft)
19.10.2014 05:30 6,3 C 25,6 C 7,6 C 6,8 C 6,8 C 0,5 C 91 % 92 % 0 % 1022,1 hPa 0,0 l/m 0,0 km/h (0 Bft) W 270 0 min 0,0 UV-I 4,9 C 6,8 C 0,0 km/h (0 Bft)
19.10.2014 05:35 6,2 C 25,6 C 7,6 C 6,7 C 6,7 C 0,5 C 91 % 92 % 0 % 1022,1 hPa 0,0 l/m 0,0 km/h (0 Bft) NW 315 0 min 0,0 UV-I 4,8 C 6,7 C 0,0 km/h (0 Bft)
19.10.2014 05:40 6,1 C 25,6 C 7,6 C 6,7 C 6,7 C 0,6 C 91 % 92 % 0 % 1022,1 hPa 0,0 l/m 0,0 km/h (0 Bft) O 90 0 min 0,0 UV-I 4,7 C 6,7 C 0,0 km/h (0 Bft)
19.10.2014 05:45 6,1 C 25,6 C 7,6 C 6,8 C 6,8 C 0,7 C 91 % 92 % 0 % 1022,1 hPa 0,0 l/m 0,2 km/h (0 Bft) NW 315 0 min 0,0 UV-I 4,7 C 6,8 C 0,0 km/h (0 Bft)
19.10.2014 05:50 6,3 C 25,6 C 7,6 C 6,9 C 6,9 C 0,6 C 91 % 92 % 0 % 1021,4 hPa 0,0 l/m 0,2 km/h (0 Bft) W 270 0 min 0,0 UV-I 4,9 C 6,9 C 0,0 km/h (0 Bft)
19.10.2014 05:55 6,3 C 25,6 C 7,6 C 6,9 C 6,9 C 0,6 C 91 % 92 % 0 % 1021,4 hPa 0,0 l/m 0,2 km/h (0 Bft) N-NW 337 0 min 0,0 UV-I 4,9 C 6,9 C 0,0 km/h (0 Bft)
19.10.2014 06:00 6,3 C 25,6 C 7,6 C 7,1 C 7,1 C 0,8 C 92 % 92 % 0 % 1021,4 hPa 0,0 l/m 0,0 km/h (0 Bft) S-SO 157 0 min 0,0 UV-I 5,1 C 7,1 C 0,0 km/h (0 Bft)
19.10.2014 06:05 6,3 C 25,6 C 7,7 C 7,1 C 7,1 C 0,8 C 92 % 92 % 0 % 1021,4 hPa 0,0 l/m 0,0 km/h (0 Bft) S-SW 202 0 min 0,0 UV-I 5,1 C 7,1 C 0,0 km/h (0 Bft)
19.10.2014 06:10 6,3 C 25,6 C 7,5 C 7,0 C 7,0 C 0,7 C 92 % 92 % 0 % 1021,4 hPa 0,0 l/m 0,0 km/h (0 Bft) W-SW 247 0 min 0,0 UV-I 5,1 C 7,0 C 0,0 km/h (0 Bft)
19.10.2014 06:15 6,3 C 25,6 C 7,6 C 7,0 C 7,0 C 0,7 C 92 % 92 % 0 % 1021,4 hPa 0,0 l/m 0,0 km/h (0 Bft) N-NO 22 0 min 0,0 UV-I 5,1 C 7,0 C 0,0 km/h (0 Bft)
19.10.2014 06:20 6,3 C 25,6 C 7,6 C 6,9 C 6,9 C 0,6 C 92 % 92 % 0 % 1021,4 hPa 0,0 l/m 0,0 km/h (0 Bft) NW 315 0 min 0,0 UV-I 5,1 C 6,9 C 0,0 km/h (0 Bft)
19.10.2014 06:25 6,3 C 25,6 C 7,6 C 6,9 C 6,9 C 0,6 C 91 % 92 % 0 % 1021,4 hPa 0,0 l/m 0,0 km/h (0 Bft) NW 315 0 min 0,0 UV-I 4,9 C 6,9 C 0,0 km/h (0 Bft)
19.10.2014 06:30 6,3 C 25,5 C 7,6 C 6,9 C 6,9 C 0,6 C 91 % 92 % 0 % 1021,4 hPa 0,0 l/m 0,0 km/h (0 Bft) W-SW 247 0 min 0,0 UV-I 4,9 C 6,9 C 0,0 km/h (0 Bft)
19.10.2014 06:35 6,3 C 25,6 C 7,6 C 6,9 C 6,9 C 0,6 C 91 % 92 % 0 % 1021,4 hPa 0,0 l/m 0,0 km/h (0 Bft) O 90 0 min 0,0 UV-I 4,9 C 6,9 C 0,0 km/h (0 Bft)
19.10.2014 06:40 6,3 C 25,6 C 7,7 C 7,1 C 7,1 C 0,8 C 92 % 92 % 0 % 1021,4 hPa 0,0 l/m 0,0 km/h (0 Bft) O 90 0 min 0,0 UV-I 5,1 C 7,1 C 0,0 km/h (0 Bft)
19.10.2014 06:45 6,4 C 25,5 C 7,7 C 7,1 C 7,1 C 0,7 C 92 % 92 % 0 % 1021,4 hPa 0,0 l/m 0,0 km/h (0 Bft) SW 225 0 min 0,0 UV-I 5,2 C 7,1 C 0,0 km/h (0 Bft)
19.10.2014 06:50 6,3 C 25,5 C 7,7 C 7,0 C 7,0 C 0,7 C 92 % 92 % 0 % 1021,2 hPa 0,0 l/m 0,0 km/h (0 Bft) W-SW 247 0 min 0,0 UV-I 5,1 C 7,0 C 0,0 km/h (0 Bft)
19.10.2014 06:55 6,3 C 25,5 C 7,7 C 7,0 C 7,0 C 0,7 C 92 % 92 % 0 % 1021,2 hPa 0,0 l/m 0,0 km/h (0 Bft) W-SW 247 0 min 0,0 UV-I 5,1 C 7,0 C 0,0 km/h (0 Bft)
19.10.2014 07:00 6,2 C 25,5 C 7,7 C 6,9 C 6,9 C 0,7 C 92 % 92 % 0 % 1021,2 hPa 0,0 l/m 0,0 km/h (0 Bft) W-SW 247 0 min 0,0 UV-I 5,0 C 6,9 C 0,0 km/h (0 Bft)
19.10.2014 07:05 6,3 C 25,5 C 7,6 C 7,0 C 7,0 C 0,7 C 92 % 92 % 0 % 1021,2 hPa 0,0 l/m 0,0 km/h (0 Bft) NW 315 0 min 0,0 UV-I 5,1 C 7,0 C 0,0 km/h (0 Bft)
19.10.2014 07:10 6,3 C 25,5 C 7,7 C 7,2 C 7,2 C 0,9 C 92 % 92 % 0 % 1021,5 hPa 0,0 l/m 0,0 km/h (0 Bft) W-SW 247 0 min 0,0 UV-I 5,1 C 7,2 C 0,0 km/h (0 Bft)
19.10.2014 07:15 6,3 C 25,5 C 7,7 C 7,2 C 7,2 C 0,9 C 92 % 92 % 0 % 1021,5 hPa 0,0 l/m 0,0 km/h (0 Bft) W-SW 247 0 min 0,0 UV-I 5,1 C 7,2 C 0,0 km/h (0 Bft)
19.10.2014 07:20 6,3 C 25,5 C 7,9 C 7,1 C 7,1 C 0,8 C 92 % 92 % 0 % 1021,5 hPa 0,0 l/m 0,0 km/h (0 Bft) W-NW 292 0 min 0,0 UV-I 5,1 C 7,1 C 0,0 km/h (0 Bft)
19.10.2014 07:25 6,3 C 25,5 C 7,8 C 7,1 C 7,1 C 0,8 C 92 % 92 % 0 % 1021,5 hPa 0,0 l/m 0,0 km/h (0 Bft) W 270 0 min 0,0 UV-I 5,1 C 7,1 C 0,0 km/h (0 Bft)
19.10.2014 07:30 6,3 C 25,5 C 7,9 C 7,0 C 7,0 C 0,7 C 92 % 92 % 0 % 1020,8 hPa 0,0 l/m 0,0 km/h (0 Bft) NW 315 0 min 0,0 UV-I 5,1 C 7,0 C 0,0 km/h (0 Bft)
19.10.2014 07:35 6,3 C 25,5 C 7,9 C 7,0 C 7,0 C 0,7 C 92 % 92 % 0 % 1020,8 hPa 0,0 l/m 0,0 km/h (0 Bft) NW 315 0 min 0,0 UV-I 5,1 C 7,0 C 0,0 km/h (0 Bft)
19.10.2014 07:40 6,3 C 25,5 C 7,7 C 7,1 C 7,1 C 0,8 C 92 % 92 % 0 % 1020,8 hPa 0,0 l/m 0,0 km/h (0 Bft) O 90 0 min 0,0 UV-I 5,1 C 7,1 C 0,0 km/h (0 Bft)
19.10.2014 07:45 6,4 C 25,5 C 7,9 C 7,2 C 7,2 C 0,8 C 92 % 92 % 0 % 1020,8 hPa 0,0 l/m 0,0 km/h (0 Bft) O-NO 67 0 min 0,0 UV-I 5,2 C 7,2 C 0,0 km/h (0 Bft)
19.10.2014 07:50 6,4 C 25,5 C 7,7 C 7,2 C 7,2 C 0,8 C 92 % 92 % 21 % 1021,1 hPa 0,0 l/m 0,0 km/h (0 Bft) W-NW 292 5 min 0,0 UV-I 5,2 C 7,2 C 0,0 km/h (0 Bft)
19.10.2014 07:55 6,4 C 25,5 C 7,8 C 7,2 C 7,2 C 0,8 C 92 % 92 % 21 % 1021,1 hPa 0,0 l/m 0,0 km/h (0 Bft) W-NW 292 5 min 0,0 UV-I 5,2 C 7,2 C 0,0 km/h (0 Bft)
19.10.2014 08:00 6,4 C 25,4 C 7,8 C 7,2 C 7,2 C 0,8 C 92 % 92 % 21 % 1021,1 hPa 0,0 l/m 0,0 km/h (0 Bft) W-SW 247 5 min 0,0 UV-I 5,2 C 7,2 C 0,0 km/h (0 Bft)
19.10.2014 08:05 6,4 C 25,4 C 7,9 C 7,2 C 7,2 C 0,8 C 92 % 92 % 21 % 1021,1 hPa 0,0 l/m 0,0 km/h (0 Bft) NW 315 5 min 0,0 UV-I 5,2 C 7,2 C 0,0 km/h (0 Bft)
19.10.2014 08:10 6,3 C 25,4 C 7,9 C 7,5 C 7,5 C 1,2 C 92 % 92 % 32 % 1020,8 hPa 0,0 l/m 0,0 km/h (0 Bft) NW 315 5 min 0,0 UV-I 5,1 C 7,5 C 0,0 km/h (0 Bft)
19.10.2014 08:15 6,4 C 25,4 C 7,9 C 7,5 C 7,5 C 1,1 C 92 % 92 % 29 % 1020,8 hPa 0,0 l/m 0,0 km/h (0 Bft) NW 315 5 min 0,0 UV-I 5,2 C 7,5 C 0,0 km/h (0 Bft)
19.10.2014 08:20 6,5 C 25,4 C 8,1 C 7,7 C 7,7 C 1,2 C 92 % 92 % 32 % 1020,8 hPa 0,0 l/m 0,0 km/h (0 Bft) O-NO 67 5 min 0,0 UV-I 5,3 C 7,7 C 0,0 km/h (0 Bft)
19.10.2014 08:25 6,7 C 25,4 C 8,1 C 7,9 C 7,9 C 1,2 C 92 % 92 % 32 % 1020,8 hPa 0,0 l/m 0,0 km/h (0 Bft) NW 315 5 min 0,0 UV-I 5,5 C 7,9 C 0,0 km/h (0 Bft)
19.10.2014 08:30 6,8 C 25,4 C 8,2 C 8,2 C 8,2 C 1,4 C 92 % 92 % 37 % 1020,9 hPa 0,0 l/m 0,0 km/h (0 Bft) W 270 5 min 0,0 UV-I 5,6 C 8,2 C 0,0 km/h (0 Bft)
19.10.2014 08:35 6,8 C 25,4 C 8,4 C 8,4 C 8,4 C 1,6 C 92 % 92 % 42 % 1020,9 hPa 0,0 l/m 0,0 km/h (0 Bft) W-SW 247 5 min 0,0 UV-I 5,6 C 8,4 C 0,0 km/h (0 Bft)
19.10.2014 08:40 7,1 C 25,4 C 8,4 C 8,5 C 8,5 C 1,4 C 93 % 92 % 37 % 1020,9 hPa 0,0 l/m 0,0 km/h (0 Bft) W-SW 247 5 min 0,0 UV-I 6,0 C 8,5 C 0,0 km/h (0 Bft)
19.10.2014 08:45 7,1 C 25,4 C 8,4 C 8,6 C 8,6 C 1,5 C 92 % 92 % 39 % 1020,9 hPa 0,0 l/m 0,0 km/h (0 Bft) W-SW 247 0 min 0,0 UV-I 5,9 C 8,6 C 0,0 km/h (0 Bft)
19.10.2014 08:50 7,3 C 25,4 C 8,6 C 8,7 C 8,7 C 1,4 C 93 % 92 % 37 % 1020,9 hPa 0,0 l/m 0,0 km/h (0 Bft) O 90 0 min 0,0 UV-I 6,2 C 8,7 C 0,0 km/h (0 Bft)
19.10.2014 08:55 7,5 C 25,4 C 8,9 C 8,9 C 8,9 C 1,4 C 93 % 92 % 37 % 1020,9 hPa 0,0 l/m 0,0 km/h (0 Bft) O 90 0 min 0,0 UV-I 6,4 C 8,9 C 0,0 km/h (0 Bft)
19.10.2014 09:00 7,6 C 25,4 C 9,0 C 9,3 C 9,3 C 1,7 C 93 % 92 % 45 % 1020,9 hPa 0,0 l/m 0,0 km/h (0 Bft) S 180 0 min 0,0 UV-I 6,5 C 9,3 C 0,0 km/h (0 Bft)
19.10.2014 09:05 7,7 C 25,4 C 9,1 C 9,5 C 9,5 C 1,8 C 93 % 92 % 47 % 1020,9 hPa 0,0 l/m 0,0 km/h (0 Bft) W 270 0 min 0,0 UV-I 6,6 C 9,5 C 0,0 km/h (0 Bft)
19.10.2014 09:10 7,8 C 25,4 C 9,1 C 9,5 C 9,5 C 1,7 C 93 % 92 % 45 % 1020,7 hPa 0,0 l/m 0,0 km/h (0 Bft) S 180 0 min 0,0 UV-I 6,7 C 9,5 C 0,0 km/h (0 Bft)
19.10.2014 09:15 7,7 C 25,4 C 9,3 C 9,5 C 9,5 C 1,8 C 93 % 92 % 47 % 1020,7 hPa 0,0 l/m 0,0 km/h (0 Bft) W-SW 247 0 min 0,0 UV-I 6,6 C 9,5 C 0,0 km/h (0 Bft)
19.10.2014 09:20 7,8 C 25,4 C 9,3 C 9,5 C 9,5 C 1,7 C 92 % 92 % 45 % 1020,7 hPa 0,0 l/m 0,0 km/h (0 Bft) W-SW 247 0 min 0,0 UV-I 6,6 C 9,5 C 0,0 km/h (0 Bft)
19.10.2014 09:25 7,8 C 25,4 C 9,5 C 9,7 C 9,7 C 1,9 C 92 % 92 % 50 % 1020,7 hPa 0,0 l/m 0,0 km/h (0 Bft) NW 315 0 min 0,0 UV-I 6,6 C 9,7 C 0,0 km/h (0 Bft)
19.10.2014 09:30 8,0 C 25,5 C 9,7 C 10,3 C 10,3 C 2,3 C 93 % 92 % 61 % 1020,6 hPa 0,0 l/m 0,0 km/h (0 Bft) O-SO 112 0 min 0,0 UV-I 6,9 C 10,3 C 0,0 km/h (0 Bft)
19.10.2014 09:35 8,3 C 25,4 C 10,0 C 10,7 C 10,7 C 2,4 C 93 % 92 % 63 % 1020,6 hPa 0,0 l/m 0,0 km/h (0 Bft) S 180 0 min 0,0 UV-I 7,2 C 10,7 C 0,0 km/h (0 Bft)
19.10.2014 09:40 8,7 C 25,4 C 10,3 C 11,4 C 11,4 C 2,7 C 93 % 92 % 71 % 1020,6 hPa 0,0 l/m 0,0 km/h (0 Bft) S-SO 157 0 min 0,0 UV-I 7,6 C 11,4 C 0,0 km/h (0 Bft)
19.10.2014 09:45 8,9 C 25,4 C 10,7 C 11,8 C 11,8 C 2,9 C 93 % 92 % 76 % 1020,6 hPa 0,0 l/m 0,0 km/h (0 Bft) SW 225 0 min 0,0 UV-I 7,8 C 11,8 C 0,0 km/h (0 Bft)
19.10.2014 09:50 9,2 C 25,4 C 10,8 C 12,2 C 12,2 C 3,0 C 93 % 92 % 79 % 1020,8 hPa 0,0 l/m 0,0 km/h (0 Bft) O-NO 67 0 min 0,0 UV-I 8,1 C 12,2 C 0,0 km/h (0 Bft)
19.10.2014 09:55 9,6 C 25,4 C 11,1 C 12,5 C 12,5 C 2,9 C 93 % 92 % 76 % 1020,8 hPa 0,0 l/m 0,0 km/h (0 Bft) O-SO 112 0 min 0,0 UV-I 8,5 C 12,5 C 0,0 km/h (0 Bft)
19.10.2014 10:00 10,0 C 25,3 C 11,5 C 13,0 C 13,0 C 3,0 C 93 % 92 % 79 % 1020,8 hPa 0,0 l/m 0,2 km/h (0 Bft) SO 135 0 min 0,0 UV-I 8,9 C 13,0 C 0,0 km/h (0 Bft)
19.10.2014 10:05 10,6 C 25,2 C 11,8 C 13,2 C 13,2 C 2,6 C 93 % 92 % 68 % 1020,8 hPa 0,0 l/m 0,2 km/h (0 Bft) O-SO 112 0 min 0,0 UV-I 9,5 C 13,2 C 0,0 km/h (0 Bft)
19.10.2014 10:10 11,1 C 25,1 C 12,1 C 13,6 C 13,6 C 2,5 C 94 % 92 % 66 % 1020,6 hPa 0,0 l/m 0,3 km/h (0 Bft) N 360 0 min 0,0 UV-I 10,2 C 13,6 C 0,0 km/h (0 Bft)
19.10.2014 10:15 11,4 C 25,1 C 12,4 C 13,8 C 13,8 C 2,4 C 94 % 92 % 63 % 1020,6 hPa 0,0 l/m 0,2 km/h (0 Bft) W-SW 247 0 min 0,0 UV-I 10,5 C 13,8 C 0,0 km/h (0 Bft)
19.10.2014 10:20 11,6 C 25,1 C 12,5 C 14,1 C 14,1 C 2,5 C 94 % 92 % 66 % 1020,6 hPa 0,0 l/m 0,2 km/h (0 Bft) O-NO 67 0 min 0,0 UV-I 10,7 C 14,1 C 0,0 km/h (0 Bft)
19.10.2014 10:25 11,9 C 25,0 C 12,7 C 14,2 C 14,2 C 2,3 C 93 % 92 % 61 % 1020,6 hPa 0,0 l/m 0,2 km/h (0 Bft) N 360 0 min 0,0 UV-I 10,8 C 14,2 C 0,0 km/h (0 Bft)
19.10.2014 10:30 12,3 C 25,0 C 13,1 C 14,6 C 14,6 C 2,3 C 94 % 92 % 61 % 1020,1 hPa 0,0 l/m 0,5 km/h (0 Bft) W-SW 247 0 min 0,0 UV-I 11,4 C 14,6 C 9,8 km/h (2 Bft)
19.10.2014 10:35 12,4 C 25,0 C 13,4 C 14,8 C 14,8 C 2,4 C 93 % 92 % 63 % 1020,1 hPa 0,0 l/m 0,8 km/h (0 Bft) S-SO 157 0 min 0,0 UV-I 11,3 C 14,8 C 2,6 km/h (1 Bft)
19.10.2014 10:40 12,6 C 25,0 C 13,8 C 15,1 C 15,1 C 2,5 C 93 % 91 % 66 % 1020,1 hPa 0,0 l/m 1,1 km/h (1 Bft) S-SW 202 0 min 0,0 UV-I 11,5 C 15,1 C 1,9 km/h (1 Bft)
19.10.2014 10:45 12,8 C 25,0 C 14,0 C 15,3 C 15,3 C 2,5 C 93 % 92 % 66 % 1020,1 hPa 0,0 l/m 1,0 km/h (0 Bft) S 180 0 min 0,0 UV-I 11,7 C 15,3 C 0,0 km/h (0 Bft)
19.10.2014 10:50 13,1 C 24,9 C 14,3 C 15,5 C 15,5 C 2,4 C 93 % 92 % 63 % 1019,8 hPa 0,0 l/m 1,3 km/h (1 Bft) S-SO 157 0 min 0,0 UV-I 12,0 C 15,5 C 3,2 km/h (1 Bft)
19.10.2014 10:55 13,3 C 24,9 C 14,5 C 15,7 C 15,7 C 2,4 C 93 % 92 % 63 % 1019,8 hPa 0,0 l/m 1,0 km/h (0 Bft) W-SW 247 0 min 0,0 UV-I 12,2 C 15,7 C 2,4 km/h (1 Bft)
19.10.2014 11:00 13,5 C 24,9 C 14,8 C 15,9 C 15,9 C 2,4 C 94 % 91 % 63 % 1019,8 hPa 0,0 l/m 0,6 km/h (0 Bft) SW 225 0 min 0,0 UV-I 12,6 C 15,9 C 1,6 km/h (1 Bft)
19.10.2014 11:05 13,9 C 24,9 C 15,1 C 16,1 C 16,1 C 2,2 C 94 % 91 % 58 % 1019,8 hPa 0,0 l/m 1,1 km/h (1 Bft) S 180 0 min 0,0 UV-I 12,9 C 16,1 C 2,4 km/h (1 Bft)
19.10.2014 11:10 14,3 C 24,8 C 15,4 C 16,6 C 16,6 C 2,3 C 93 % 91 % 61 % 1020,2 hPa 0,0 l/m 1,8 km/h (1 Bft) SW 225 0 min 0,0 UV-I 13,2 C 16,6 C 2,1 km/h (1 Bft)
19.10.2014 11:15 14,6 C 24,8 C 15,6 C 16,8 C 16,8 C 2,2 C 93 % 91 % 58 % 1020,2 hPa 0,0 l/m 1,8 km/h (1 Bft) W-SW 247 0 min 0,0 UV-I 13,5 C 16,8 C 3,9 km/h (1 Bft)
19.10.2014 11:20 15,1 C 25,0 C 15,9 C 17,1 C 17,1 C 2,0 C 93 % 91 % 53 % 1020,2 hPa 0,0 l/m 2,3 km/h (1 Bft) S 180 0 min 0,0 UV-I 14,0 C 17,1 C 6,3 km/h (2 Bft)
19.10.2014 11:25 15,4 C 25,0 C 16,1 C 17,2 C 17,2 C 1,8 C 93 % 91 % 47 % 1020,2 hPa 0,0 l/m 2,7 km/h (1 Bft) NW 315 0 min 0,0 UV-I 14,3 C 17,2 C 1,6 km/h (1 Bft)
19.10.2014 11:30 15,9 C 25,0 C 16,3 C 17,5 C 17,5 C 1,6 C 92 % 90 % 42 % 1019,6 hPa 0,0 l/m 2,1 km/h (1 Bft) SW 225 0 min 0,0 UV-I 14,6 C 17,5 C 0,0 km/h (0 Bft)
19.10.2014 11:35 16,2 C 24,9 C 16,3 C 17,8 C 17,8 C 1,6 C 91 % 90 % 42 % 1019,6 hPa 0,0 l/m 1,6 km/h (1 Bft) S-SO 157 0 min 0,0 UV-I 14,7 C 17,8 C 0,0 km/h (0 Bft)
19.10.2014 11:40 16,5 C 24,9 C 16,6 C 18,0 C 18,0 C 1,5 C 90 % 89 % 39 % 1019,6 hPa 0,0 l/m 1,9 km/h (1 Bft) W-NW 292 0 min 0,0 UV-I 14,9 C 18,0 C 1,8 km/h (1 Bft)
19.10.2014 11:45 16,7 C 24,9 C 16,7 C 18,2 C 18,2 C 1,5 C 89 % 89 % 39 % 1019,6 hPa 0,0 l/m 2,1 km/h (1 Bft) SW 225 0 min 0,0 UV-I 14,9 C 18,2 C 2,4 km/h (1 Bft)
19.10.2014 11:50 17,1 C 24,9 C 16,8 C 18,5 C 18,5 C 1,4 C 88 % 89 % 37 % 1018,8 hPa 0,0 l/m 1,9 km/h (1 Bft) S-SO 157 0 min 0,0 UV-I 15,1 C 18,5 C 1,9 km/h (1 Bft)
19.10.2014 11:55 17,2 C 24,9 C 17,0 C 18,6 C 18,6 C 1,4 C 88 % 89 % 37 % 1018,8 hPa 0,0 l/m 1,8 km/h (1 Bft) SO 135 0 min 0,0 UV-I 15,2 C 18,6 C 3,4 km/h (1 Bft)
19.10.2014 12:00 17,4 C 24,9 C 17,2 C 19,0 C 19,0 C 1,6 C 85 % 87 % 42 % 1018,8 hPa 0,0 l/m 2,1 km/h (1 Bft) N 360 0 min 0,0 UV-I 14,8 C 19,0 C 6,1 km/h (2 Bft)
19.10.2014 12:05 17,7 C 25,0 C 17,3 C 19,2 C 19,2 C 1,5 C 84 % 87 % 39 % 1018,8 hPa 0,0 l/m 2,4 km/h (1 Bft) NO 45 0 min 0,0 UV-I 15,0 C 19,2 C 3,2 km/h (1 Bft)
19.10.2014 12:10 18,2 C 25,0 C 17,5 C 19,5 C 19,5 C 1,3 C 82 % 86 % 34 % 1019,0 hPa 0,0 l/m 2,4 km/h (1 Bft) W-SW 247 0 min 0,0 UV-I 15,1 C 19,5 C 3,1 km/h (1 Bft)
19.10.2014 12:15 18,5 C 25,0 C 17,6 C 20,0 C 20,0 C 1,5 C 81 % 86 % 39 % 1019,0 hPa 0,0 l/m 2,6 km/h (1 Bft) NW 315 0 min 0,0 UV-I 15,2 C 20,0 C 2,9 km/h (1 Bft)
19.10.2014 12:20 18,9 C 25,0 C 17,7 C 21,0 C 21,0 C 2,1 C 80 % 86 % 55 % 1019,0 hPa 0,0 l/m 1,8 km/h (1 Bft) S-SO 157 0 min 0,0 UV-I 15,4 C 21,0 C 0,0 km/h (0 Bft)
19.10.2014 12:25 19,0 C 25,0 C 17,9 C 21,5 C 21,5 C 2,5 C 79 % 86 % 66 % 1019,0 hPa 0,0 l/m 1,4 km/h (1 Bft) SW 225 0 min 0,0 UV-I 15,3 C 21,5 C 2,7 km/h (1 Bft)
19.10.2014 12:30 19,2 C 25,0 C 17,9 C 23,3 C 23,3 C 4,1 C 78 % 85 % 100 % 1018,8 hPa 0,0 l/m 2,1 km/h (1 Bft) S-SW 202 5 min 0,0 UV-I 15,3 C 23,3 C 0,0 km/h (0 Bft)
19.10.2014 12:35 19,4 C 25,0 C 18,1 C 24,7 C 24,7 C 5,3 C 77 % 85 % 100 % 1018,8 hPa 0,0 l/m 2,4 km/h (1 Bft) O-NO 67 5 min 0,0 UV-I 15,3 C 24,7 C 2,9 km/h (1 Bft)
19.10.2014 12:40 19,6 C 25,1 C 18,1 C 25,5 C 25,5 C 5,9 C 76 % 84 % 100 % 1018,8 hPa 0,0 l/m 2,7 km/h (1 Bft) S-SW 202 5 min 0,0 UV-I 15,2 C 25,5 C 12,9 km/h (3 Bft)
19.10.2014 12:45 19,9 C 25,1 C 18,3 C 25,6 C 25,6 C 5,7 C 76 % 84 % 100 % 1018,8 hPa 0,0 l/m 4,7 km/h (1 Bft) SW 225 5 min 0,0 UV-I 15,5 C 25,6 C 11,9 km/h (2 Bft)
19.10.2014 12:55 20,1 C 25,1 C 18,3 C 25,4 C 25,4 C 5,3 C 74 % 83 % 100 % 1018,6 hPa 0,0 l/m 5,5 km/h (1 Bft) O-SO 112 10 min 0,0 UV-I 15,3 C 25,4 C 2,6 km/h (1 Bft)
19.10.2014 13:00 20,3 C 25,0 C 18,5 C 25,6 C 25,6 C 5,3 C 73 % 82 % 100 % 1018,6 hPa 0,0 l/m 4,5 km/h (1 Bft) O-NO 67 5 min 0,0 UV-I 15,3 C 25,6 C 3,4 km/h (1 Bft)
19.10.2014 13:05 20,3 C 25,1 C 18,5 C 25,9 C 25,9 C 5,6 C 74 % 83 % 100 % 1018,6 hPa 0,0 l/m 3,1 km/h (1 Bft) SO 135 5 min 0,0 UV-I 15,5 C 25,9 C 3,5 km/h (1 Bft)
19.10.2014 13:10 20,3 C 25,1 C 18,5 C 26,2 C 26,2 C 5,9 C 74 % 83 % 100 % 1018,1 hPa 0,0 l/m 2,1 km/h (1 Bft) S-SW 202 5 min 0,0 UV-I 15,5 C 26,2 C 4,0 km/h (1 Bft)
19.10.2014 13:15 20,4 C 25,1 C 18,6 C 25,8 C 25,8 C 5,4 C 73 % 82 % 100 % 1018,1 hPa 0,0 l/m 2,7 km/h (1 Bft) W-NW 292 5 min 0,0 UV-I 15,4 C 25,8 C 4,7 km/h (1 Bft)
19.10.2014 13:20 20,3 C 25,1 C 18,5 C 24,1 C 24,1 C 3,8 C 73 % 82 % 100 % 1018,1 hPa 0,0 l/m 3,1 km/h (1 Bft) S 180 5 min 0,0 UV-I 15,3 C 24,1 C 6,3 km/h (2 Bft)
19.10.2014 13:25 20,3 C 25,1 C 18,5 C 23,1 C 23,1 C 2,8 C 73 % 82 % 74 % 1018,1 hPa 0,0 l/m 3,7 km/h (1 Bft) W-NW 292 0 min 0,0 UV-I 15,3 C 23,1 C 7,9 km/h (2 Bft)
19.10.2014 13:30 20,4 C 25,1 C 18,5 C 22,7 C 22,7 C 2,3 C 73 % 82 % 61 % 1018,2 hPa 0,0 l/m 3,9 km/h (1 Bft) S-SO 157 0 min 0,0 UV-I 15,4 C 22,7 C 4,0 km/h (1 Bft)
19.10.2014 13:35 20,4 C 25,1 C 18,7 C 22,3 C 22,3 C 1,9 C 73 % 81 % 50 % 1018,2 hPa 0,0 l/m 4,0 km/h (1 Bft) S-SW 202 0 min 0,0 UV-I 15,4 C 22,3 C 3,7 km/h (1 Bft)
19.10.2014 13:40 20,5 C 25,2 C 18,9 C 22,1 C 22,1 C 1,6 C 73 % 81 % 42 % 1018,2 hPa 0,0 l/m 2,7 km/h (1 Bft) N-NW 337 0 min 0,0 UV-I 15,5 C 22,1 C 3,1 km/h (1 Bft)
19.10.2014 13:45 20,6 C 25,2 C 18,8 C 21,9 C 21,9 C 1,3 C 72 % 81 % 34 % 1018,2 hPa 0,0 l/m 2,6 km/h (1 Bft) W 270 0 min 0,0 UV-I 15,4 C 21,9 C 5,8 km/h (2 Bft)
19.10.2014 13:50 20,6 C 25,2 C 19,0 C 21,8 C 21,8 C 1,2 C 73 % 80 % 32 % 1017,7 hPa 0,0 l/m 3,2 km/h (1 Bft) S-SO 157 0 min 0,0 UV-I 15,6 C 21,8 C 12,9 km/h (3 Bft)
19.10.2014 13:55 20,7 C 25,2 C 19,1 C 21,7 C 21,7 C 1,0 C 73 % 80 % 26 % 1017,7 hPa 0,0 l/m 2,9 km/h (1 Bft) S-SO 157 0 min 0,0 UV-I 15,7 C 21,7 C 3,9 km/h (1 Bft)
19.10.2014 14:00 20,8 C 25,3 C 19,4 C 21,9 C 21,9 C 1,1 C 73 % 81 % 29 % 1017,7 hPa 0,0 l/m 3,1 km/h (1 Bft) S-SO 157 0 min 0,0 UV-I 15,8 C 21,9 C 4,0 km/h (1 Bft)
19.10.2014 14:05 20,9 C 25,3 C 19,6 C 22,1 C 22,1 C 1,2 C 72 % 80 % 32 % 1017,7 hPa 0,0 l/m 2,7 km/h (1 Bft) S-SW 202 0 min 0,0 UV-I 15,7 C 22,1 C 1,8 km/h (1 Bft)
19.10.2014 14:10 21,2 C 25,3 C 19,7 C 22,3 C 22,3 C 1,1 C 72 % 80 % 29 % 1017,8 hPa 0,0 l/m 1,6 km/h (1 Bft) W 270 0 min 0,0 UV-I 15,9 C 22,3 C 2,4 km/h (1 Bft)
19.10.2014 14:15 21,3 C 25,3 C 19,9 C 22,3 C 22,3 C 1,0 C 71 % 79 % 26 % 1017,8 hPa 0,0 l/m 1,9 km/h (1 Bft) W 270 0 min 0,0 UV-I 15,8 C 22,3 C 3,5 km/h (1 Bft)
19.10.2014 14:20 21,5 C 25,3 C 19,9 C 22,4 C 22,4 C 0,9 C 71 % 79 % 24 % 1017,8 hPa 0,0 l/m 2,9 km/h (1 Bft) W 270 0 min 0,0 UV-I 16,0 C 22,4 C 5,5 km/h (1 Bft)
19.10.2014 14:25 21,4 C 25,4 C 20,0 C 22,4 C 22,4 C 1,0 C 71 % 78 % 26 % 1017,8 hPa 0,0 l/m 3,9 km/h (1 Bft) S-SW 202 0 min 0,0 UV-I 15,9 C 22,4 C 9,5 km/h (2 Bft)
19.10.2014 14:30 21,5 C 25,4 C 20,1 C 22,4 C 22,4 C 0,9 C 71 % 78 % 24 % 1016,9 hPa 0,0 l/m 3,7 km/h (1 Bft) S 180 0 min 0,0 UV-I 16,0 C 22,4 C 4,0 km/h (1 Bft)
19.10.2014 14:35 21,6 C 25,4 C 20,3 C 22,4 C 22,4 C 0,8 C 70 % 78 % 21 % 1016,9 hPa 0,0 l/m 3,2 km/h (1 Bft) O-NO 67 0 min 0,0 UV-I 15,9 C 22,4 C 2,7 km/h (1 Bft)
19.10.2014 14:40 21,6 C 25,4 C 20,2 C 22,3 C 22,3 C 0,7 C 71 % 78 % 18 % 1016,9 hPa 0,0 l/m 3,4 km/h (1 Bft) W 270 0 min 0,0 UV-I 16,1 C 22,3 C 4,5 km/h (1 Bft)
19.10.2014 14:45 21,7 C 25,5 C 20,3 C 22,2 C 22,2 C 0,5 C 71 % 78 % 13 % 1016,9 hPa 0,0 l/m 3,1 km/h (1 Bft) W 270 0 min 0,0 UV-I 16,2 C 22,2 C 5,0 km/h (1 Bft)
19.10.2014 14:50 21,9 C 25,5 C 20,4 C 22,2 C 22,2 C 0,3 C 71 % 79 % 8 % 1017,6 hPa 0,0 l/m 3,5 km/h (1 Bft) SW 225 0 min 0,0 UV-I 16,4 C 22,2 C 3,9 km/h (1 Bft)
19.10.2014 14:55 21,9 C 25,5 C 20,4 C 22,1 C 22,1 C 0,2 C 71 % 78 % 5 % 1017,6 hPa 0,0 l/m 3,2 km/h (1 Bft) SO 135 0 min 0,0 UV-I 16,4 C 22,1 C 5,5 km/h (1 Bft)
19.10.2014 15:00 22,1 C 25,5 C 20,4 C 22,1 C 22,1 C 0,0 C 71 % 78 % 0 % 1017,6 hPa 0,0 l/m 2,6 km/h (1 Bft) S 180 0 min 0,0 UV-I 16,6 C 22,1 C 1,6 km/h (1 Bft)
19.10.2014 15:05 22,1 C 25,5 C 20,5 C 22,1 C 22,1 C 0,0 C 70 % 78 % 0 % 1017,6 hPa 0,0 l/m 1,9 km/h (1 Bft) S-SO 157 0 min 0,0 UV-I 16,4 C 22,1 C 0,0 km/h (0 Bft)
19.10.2014 15:10 22,1 C 25,6 C 20,7 C 22,3 C 22,3 C 0,2 C 71 % 78 % 5 % 1017,4 hPa 0,0 l/m 1,9 km/h (1 Bft) N 360 0 min 0,0 UV-I 16,6 C 22,3 C 4,2 km/h (1 Bft)
19.10.2014 15:15 22,0 C 25,6 C 20,7 C 22,4 C 22,4 C 0,4 C 71 % 78 % 11 % 1017,4 hPa 0,0 l/m 2,3 km/h (1 Bft) S 180 0 min 0,0 UV-I 16,5 C 22,4 C 2,3 km/h (1 Bft)
19.10.2014 15:20 22,1 C 25,6 C 20,9 C 22,7 C 22,7 C 0,6 C 71 % 78 % 16 % 1017,4 hPa 0,0 l/m 2,4 km/h (1 Bft) SW 225 0 min 0,0 UV-I 16,6 C 22,7 C 0,0 km/h (0 Bft)
19.10.2014 15:25 22,3 C 25,6 C 20,9 C 23,1 C 23,1 C 0,8 C 71 % 78 % 21 % 1017,4 hPa 0,0 l/m 1,9 km/h (1 Bft) NW 315 0 min 0,0 UV-I 16,8 C 23,1 C 2,1 km/h (1 Bft)
19.10.2014 15:30 22,3 C 25,6 C 20,9 C 23,4 C 23,4 C 1,1 C 70 % 78 % 29 % 1017,1 hPa 0,0 l/m 1,8 km/h (1 Bft) SW 225 0 min 0,0 UV-I 16,6 C 23,4 C 2,1 km/h (1 Bft)
19.10.2014 15:35 22,4 C 25,7 C 21,0 C 24,0 C 24,0 C 1,6 C 71 % 78 % 42 % 1017,1 hPa 0,0 l/m 1,6 km/h (1 Bft) S-SO 157 0 min 0,0 UV-I 16,9 C 24,0 C 2,4 km/h (1 Bft)
19.10.2014 15:43 22,6 C 25,7 C 21,1 C 25,4 C 25,4 C 2,8 C 70 % 77 % 74 % 1017,1 hPa 0,0 l/m 1,6 km/h (1 Bft) N 0 0 min 0,0 UV-I 16,8 C 25,4 C 2,6 km/h (1 Bft)
19.10.2014 15:45 22,9 C 25,7 C 21,1 C 26,1 C 26,1 C 3,2 C 68 % 76 % 84 % 1017,1 hPa 0,0 l/m 2,6 km/h (1 Bft) SW 225 2 min 0,0 UV-I 16,7 C 26,1 C 5,3 km/h (1 Bft)
19.10.2014 15:50 23,2 C 25,7 C 21,2 C 26,6 C 26,6 C 3,4 C 65 % 75 % 89 % 1016,9 hPa 0,0 l/m 3,5 km/h (1 Bft) SO 135 5 min 0,0 UV-I 16,2 C 26,6 C 4,3 km/h (1 Bft)
19.10.2014 15:55 23,1 C 25,7 C 21,2 C 26,7 C 26,7 C 3,6 C 64 % 73 % 95 % 1016,9 hPa 0,0 l/m 4,3 km/h (1 Bft) O-SO 112 5 min 0,0 UV-I 15,9 C 26,7 C 7,9 km/h (2 Bft)
19.10.2014 16:00 22,9 C 25,8 C 21,1 C 26,3 C 26,3 C 3,4 C 63 % 73 % 89 % 1016,9 hPa 0,0 l/m 5,5 km/h (1 Bft) NW 315 5 min 0,0 UV-I 15,5 C 26,3 C 13,8 km/h (3 Bft)
19.10.2014 16:05 22,8 C 25,8 C 21,0 C 26,1 C 26,1 C 3,3 C 63 % 73 % 87 % 1016,9 hPa 0,0 l/m 6,3 km/h (2 Bft) S-SW 202 5 min 0,0 UV-I 15,4 C 26,1 C 5,8 km/h (2 Bft)
19.10.2014 16:10 22,7 C 25,8 C 20,9 C 25,8 C 25,8 C 3,1 C 64 % 73 % 82 % 1016,8 hPa 0,0 l/m 6,8 km/h (2 Bft) W-SW 247 5 min 0,0 UV-I 15,5 C 25,8 C 6,3 km/h (2 Bft)
19.10.2014 16:15 22,7 C 25,8 C 20,8 C 25,7 C 25,7 C 3,0 C 64 % 73 % 79 % 1016,8 hPa 0,0 l/m 6,6 km/h (2 Bft) N-NO 22 5 min 0,0 UV-I 15,5 C 25,7 C 17,2 km/h (3 Bft)
19.10.2014 16:20 22,5 C 25,8 C 20,7 C 25,5 C 25,5 C 3,0 C 64 % 73 % 79 % 1016,8 hPa 0,0 l/m 6,3 km/h (2 Bft) W-NW 292 5 min 0,0 UV-I 15,3 C 25,5 C 3,1 km/h (1 Bft)
19.10.2014 16:25 22,3 C 25,8 C 20,6 C 25,5 C 25,5 C 3,2 C 65 % 74 % 84 % 1016,8 hPa 0,0 l/m 5,5 km/h (1 Bft) SW 225 5 min 0,0 UV-I 15,4 C 25,5 C 3,1 km/h (1 Bft)
19.10.2014 16:30 22,3 C 25,9 C 20,4 C 25,6 C 25,6 C 3,3 C 65 % 74 % 87 % 1016,8 hPa 0,0 l/m 4,3 km/h (1 Bft) O-SO 112 5 min 0,0 UV-I 15,4 C 25,6 C 3,4 km/h (1 Bft)
19.10.2014 16:35 22,1 C 25,9 C 20,5 C 25,7 C 25,7 C 3,6 C 66 % 74 % 95 % 1016,8 hPa 0,0 l/m 3,9 km/h (1 Bft) W-SW 247 5 min 0,0 UV-I 15,4 C 25,7 C 7,7 km/h (2 Bft)
19.10.2014 16:40 22,0 C 25,9 C 20,4 C 25,5 C 25,5 C 3,5 C 65 % 74 % 92 % 1016,8 hPa 0,0 l/m 4,2 km/h (1 Bft) W 270 5 min 0,0 UV-I 15,1 C 25,5 C 2,7 km/h (1 Bft)
19.10.2014 16:45 22,0 C 25,9 C 20,2 C 25,3 C 25,3 C 3,3 C 66 % 74 % 87 % 1016,8 hPa 0,0 l/m 4,7 km/h (1 Bft) W 270 5 min 0,0 UV-I 15,3 C 25,3 C 3,5 km/h (1 Bft)
19.10.2014 16:50 21,8 C 25,9 C 20,1 C 25,2 C 25,2 C 3,4 C 66 % 75 % 89 % 1016,8 hPa 0,0 l/m 4,0 km/h (1 Bft) S 180 5 min 0,0 UV-I 15,2 C 25,2 C 2,3 km/h (1 Bft)
19.10.2014 16:55 21,7 C 26,0 C 20,1 C 25,2 C 25,2 C 3,5 C 67 % 75 % 92 % 1016,8 hPa 0,0 l/m 3,4 km/h (1 Bft) W-SW 247 5 min 0,0 UV-I 15,3 C 25,2 C 6,0 km/h (2 Bft)
19.10.2014 17:00 21,6 C 26,0 C 20,1 C 25,1 C 25,1 C 3,5 C 67 % 75 % 92 % 1016,8 hPa 0,0 l/m 2,6 km/h (1 Bft) S-SO 157 5 min 0,0 UV-I 15,2 C 25,1 C 2,9 km/h (1 Bft)
19.10.2014 17:05 21,5 C 26,0 C 20,1 C 25,0 C 25,0 C 3,5 C 67 % 75 % 92 % 1016,8 hPa 0,0 l/m 3,1 km/h (1 Bft) NO 45 5 min 0,0 UV-I 15,1 C 25,0 C 3,5 km/h (1 Bft)
19.10.2014 17:10 21,4 C 26,0 C 20,0 C 24,1 C 24,1 C 2,7 C 67 % 75 % 71 % 1016,6 hPa 0,0 l/m 3,4 km/h (1 Bft) W-SW 247 5 min 0,0 UV-I 15,0 C 24,1 C 3,7 km/h (1 Bft)
19.10.2014 17:15 21,5 C 26,0 C 19,9 C 23,4 C 23,4 C 1,9 C 68 % 75 % 50 % 1016,6 hPa 0,0 l/m 3,4 km/h (1 Bft) S-SO 157 5 min 0,0 UV-I 15,3 C 23,4 C 2,4 km/h (1 Bft)
19.10.2014 17:20 21,2 C 26,0 C 19,8 C 22,5 C 22,5 C 1,3 C 67 % 75 % 34 % 1016,6 hPa 0,0 l/m 3,4 km/h (1 Bft) N-NO 22 5 min 0,0 UV-I 14,8 C 22,5 C 2,3 km/h (1 Bft)
19.10.2014 17:25 21,3 C 26,1 C 19,9 C 21,9 C 21,9 C 0,6 C 67 % 75 % 16 % 1016,6 hPa 0,0 l/m 2,7 km/h (1 Bft) W-SW 247 0 min 0,0 UV-I 14,9 C 21,9 C 4,0 km/h (1 Bft)
19.10.2014 17:30 21,0 C 26,1 C 19,7 C 21,3 C 21,3 C 0,3 C 67 % 75 % 8 % 1016,5 hPa 0,0 l/m 2,6 km/h (1 Bft) S-SO 157 0 min 0,0 UV-I 14,6 C 21,3 C 2,4 km/h (1 Bft)
19.10.2014 17:35 21,1 C 26,1 C 19,6 C 21,1 C 21,0 C 0,0 C 68 % 75 % 0 % 1016,5 hPa 0,0 l/m 2,7 km/h (1 Bft) SO 135 0 min 0,0 UV-I 15,0 C 21,0 C 4,5 km/h (1 Bft)
19.10.2014 17:40 20,8 C 26,1 C 19,5 C 20,7 C 20,5 C 0,0 C 68 % 76 % 0 % 1016,5 hPa 0,0 l/m 2,3 km/h (1 Bft) W-SW 247 0 min 0,0 UV-I 14,7 C 20,5 C 1,9 km/h (1 Bft)
19.10.2014 17:45 20,7 C 26,1 C 19,5 C 20,6 C 20,3 C 0,0 C 68 % 76 % 0 % 1016,5 hPa 0,0 l/m 2,7 km/h (1 Bft) N 360 0 min 0,0 UV-I 14,6 C 20,3 C 6,3 km/h (2 Bft)
19.10.2014 17:50 20,5 C 26,1 C 19,3 C 20,4 C 20,1 C 0,0 C 69 % 76 % 0 % 1016,2 hPa 0,0 l/m 4,2 km/h (1 Bft) W-SW 247 0 min 0,0 UV-I 14,6 C 20,1 C 3,4 km/h (1 Bft)
19.10.2014 17:55 20,4 C 26,1 C 19,2 C 20,2 C 19,9 C 0,0 C 69 % 76 % 0 % 1016,2 hPa 0,0 l/m 3,9 km/h (1 Bft) W 270 0 min 0,0 UV-I 14,5 C 19,9 C 19,0 km/h (3 Bft)
19.10.2014 18:00 20,3 C 26,2 C 19,1 C 20,1 C 19,7 C 0,0 C 69 % 76 % 0 % 1016,2 hPa 0,0 l/m 3,7 km/h (1 Bft) W-SW 247 0 min 0,0 UV-I 14,4 C 19,7 C 9,3 km/h (2 Bft)
19.10.2014 18:05 20,3 C 26,2 C 18,9 C 20,1 C 19,6 C 0,0 C 70 % 77 % 0 % 1016,2 hPa 0,0 l/m 3,7 km/h (1 Bft) S-SW 202 0 min 0,0 UV-I 14,6 C 19,6 C 6,0 km/h (2 Bft)
19.10.2014 18:10 20,1 C 26,2 C 18,8 C 19,9 C 19,5 C 0,0 C 70 % 78 % 0 % 1016,4 hPa 0,0 l/m 5,1 km/h (1 Bft) W-SW 247 0 min 0,0 UV-I 14,5 C 19,5 C 3,2 km/h (1 Bft)
19.10.2014 18:15 20,0 C 26,2 C 18,7 C 19,8 C 19,4 C 0,0 C 70 % 78 % 0 % 1016,4 hPa 0,0 l/m 5,0 km/h (1 Bft) W-SW 247 0 min 0,0 UV-I 14,4 C 19,4 C 2,9 km/h (1 Bft)
19.10.2014 18:20 19,9 C 26,2 C 18,4 C 19,6 C 19,1 C 0,0 C 71 % 78 % 0 % 1016,4 hPa 0,0 l/m 3,7 km/h (1 Bft) W-SW 247 0 min 0,0 UV-I 14,5 C 19,1 C 4,5 km/h (1 Bft)
19.10.2014 18:25 19,7 C 26,2 C 18,3 C 19,4 C 18,9 C 0,0 C 71 % 79 % 0 % 1016,4 hPa 0,0 l/m 3,5 km/h (1 Bft) S 180 0 min 0,0 UV-I 14,3 C 18,9 C 5,1 km/h (1 Bft)
19.10.2014 18:30 19,6 C 26,2 C 18,1 C 19,3 C 18,7 C 0,0 C 72 % 79 % 0 % 1016,1 hPa 0,0 l/m 2,3 km/h (1 Bft) W 270 0 min 0,0 UV-I 14,4 C 18,7 C 0,0 km/h (0 Bft)
19.10.2014 18:35 19,4 C 26,2 C 17,9 C 19,1 C 18,4 C 0,0 C 72 % 79 % 0 % 1016,1 hPa 0,0 l/m 1,3 km/h (1 Bft) S-SO 157 0 min 0,0 UV-I 14,2 C 18,4 C 0,0 km/h (0 Bft)
19.10.2014 18:41 19,2 C 26,2 C 17,7 C 18,8 C 18,0 C 0,0 C 73 % 80 % 0 % 1016,1 hPa 0,0 l/m 0,5 km/h (0 Bft) N 0 0 min 0,0 UV-I 14,2 C 18,0 C 2,4 km/h (1 Bft)
19.10.2014 18:45 19,1 C 26,2 C 17,6 C 18,7 C 17,9 C 0,0 C 73 % 80 % 0 % 1016,1 hPa 0,0 l/m 0,8 km/h (0 Bft) S 180 0 min 0,0 UV-I 14,1 C 17,9 C 3,7 km/h (1 Bft)
19.10.2014 18:50 19,0 C 26,4 C 17,7 C 18,6 C 17,9 C 0,0 C 74 % 81 % 0 % 1016,4 hPa 0,0 l/m 1,9 km/h (1 Bft) O-SO 112 0 min 0,0 UV-I 14,3 C 17,9 C 3,7 km/h (1 Bft)
19.10.2014 18:55 19,0 C 26,4 C 17,8 C 18,7 C 18,0 C 0,0 C 74 % 81 % 0 % 1016,4 hPa 0,0 l/m 2,3 km/h (1 Bft) W-NW 292 0 min 0,0 UV-I 14,3 C 18,0 C 4,0 km/h (1 Bft)
19.10.2014 19:00 18,9 C 26,4 C 17,8 C 18,6 C 18,0 C 0,0 C 75 % 81 % 0 % 1016,4 hPa 0,0 l/m 1,6 km/h (1 Bft) S-SW 202 0 min 0,0 UV-I 14,4 C 18,0 C 0,0 km/h (0 Bft)
19.10.2014 19:05 18,9 C 26,4 C 17,6 C 18,5 C 17,8 C 0,0 C 75 % 81 % 0 % 1016,4 hPa 0,0 l/m 0,8 km/h (0 Bft) S 180 0 min 0,0 UV-I 14,4 C 17,8 C 2,3 km/h (1 Bft)
19.10.2014 19:10 18,8 C 26,4 C 17,5 C 18,5 C 17,8 C 0,0 C 75 % 81 % 0 % 1016,2 hPa 0,0 l/m 1,1 km/h (1 Bft) S-SO 157 0 min 0,0 UV-I 14,3 C 17,8 C 1,9 km/h (1 Bft)
19.10.2014 19:15 18,7 C 26,4 C 17,4 C 18,3 C 17,6 C 0,0 C 75 % 81 % 0 % 1016,2 hPa 0,0 l/m 1,0 km/h (0 Bft) S 180 0 min 0,0 UV-I 14,2 C 17,6 C 2,6 km/h (1 Bft)
19.10.2014 19:20 18,7 C 26,4 C 17,4 C 18,3 C 17,6 C 0,0 C 75 % 82 % 0 % 1016,2 hPa 0,0 l/m 1,0 km/h (0 Bft) N-NO 22 0 min 0,0 UV-I 14,2 C 17,6 C 2,6 km/h (1 Bft)
19.10.2014 19:25 18,5 C 26,4 C 17,3 C 18,2 C 17,5 C 0,0 C 76 % 82 % 0 % 1016,2 hPa 0,0 l/m 1,3 km/h (1 Bft) SO 135 0 min 0,0 UV-I 14,2 C 17,5 C 1,9 km/h (1 Bft)
19.10.2014 19:30 18,4 C 26,4 C 17,3 C 18,1 C 17,5 C 0,0 C 76 % 82 % 0 % 1016,3 hPa 0,0 l/m 1,1 km/h (1 Bft) SW 225 0 min 0,0 UV-I 14,1 C 17,5 C 1,9 km/h (1 Bft)
19.10.2014 19:35 18,4 C 26,4 C 17,3 C 18,1 C 17,5 C 0,0 C 76 % 83 % 0 % 1016,3 hPa 0,0 l/m 1,3 km/h (1 Bft) S-SO 157 0 min 0,0 UV-I 14,1 C 17,5 C 1,9 km/h (1 Bft)
19.10.2014 19:40 18,5 C 26,5 C 17,2 C 18,1 C 17,3 C 0,0 C 76 % 82 % 0 % 1016,3 hPa 0,0 l/m 1,0 km/h (0 Bft) S-SW 202 0 min 0,0 UV-I 14,2 C 17,3 C 0,0 km/h (0 Bft)
19.10.2014 19:45 18,3 C 26,5 C 17,1 C 18,0 C 17,3 C 0,0 C 77 % 82 % 0 % 1016,3 hPa 0,0 l/m 0,8 km/h (0 Bft) S-SO 157 0 min 0,0 UV-I 14,2 C 17,3 C 0,0 km/h (0 Bft)
19.10.2014 19:50 18,3 C 26,5 C 17,0 C 17,9 C 17,1 C 0,0 C 77 % 83 % 0 % 1015,4 hPa 0,0 l/m 0,8 km/h (0 Bft) S-SW 202 0 min 0,0 UV-I 14,2 C 17,1 C 0,0 km/h (0 Bft)
19.10.2014 19:55 18,1 C 26,5 C 17,1 C 17,8 C 17,1 C 0,0 C 77 % 83 % 0 % 1015,4 hPa 0,0 l/m 0,6 km/h (0 Bft) N 360 0 min 0,0 UV-I 14,0 C 17,1 C 0,0 km/h (0 Bft)
19.10.2014 20:00 18,1 C 26,5 C 17,0 C 17,8 C 17,1 C 0,0 C 77 % 83 % 0 % 1015,4 hPa 0,0 l/m 0,6 km/h (0 Bft) S-SO 157 0 min 0,0 UV-I 14,0 C 17,1 C 2,1 km/h (1 Bft)
19.10.2014 20:05 18,0 C 26,5 C 17,1 C 17,7 C 17,0 C 0,0 C 78 % 83 % 0 % 1015,4 hPa 0,0 l/m 0,8 km/h (0 Bft) O-SO 112 0 min 0,0 UV-I 14,1 C 17,0 C 1,6 km/h (1 Bft)
19.10.2014 20:10 18,1 C 26,5 C 17,1 C 17,8 C 17,2 C 0,0 C 78 % 84 % 0 % 1015,8 hPa 0,0 l/m 1,8 km/h (1 Bft) W 270 0 min 0,0 UV-I 14,2 C 17,2 C 1,9 km/h (1 Bft)
19.10.2014 20:15 18,1 C 26,5 C 17,1 C 17,8 C 17,3 C 0,0 C 79 % 84 % 0 % 1015,8 hPa 0,0 l/m 2,3 km/h (1 Bft) S 180 0 min 0,0 UV-I 14,4 C 17,3 C 5,5 km/h (1 Bft)
19.10.2014 20:20 18,3 C 26,5 C 17,2 C 18,0 C 17,5 C 0,0 C 79 % 83 % 0 % 1015,8 hPa 0,0 l/m 2,4 km/h (1 Bft) W 270 0 min 0,0 UV-I 14,6 C 17,5 C 3,7 km/h (1 Bft)
19.10.2014 20:25 18,3 C 26,5 C 17,3 C 18,1 C 17,6 C 0,0 C 78 % 83 % 0 % 1015,8 hPa 0,0 l/m 2,4 km/h (1 Bft) S 180 0 min 0,0 UV-I 14,4 C 17,6 C 0,0 km/h (0 Bft)
19.10.2014 20:30 18,3 C 26,5 C 17,2 C 18,1 C 17,6 C 0,0 C 78 % 83 % 0 % 1015,6 hPa 0,0 l/m 1,6 km/h (1 Bft) NW 315 0 min 0,0 UV-I 14,4 C 17,6 C 1,9 km/h (1 Bft)
19.10.2014 20:35 18,2 C 26,6 C 17,2 C 18,0 C 17,6 C 0,0 C 78 % 83 % 0 % 1015,6 hPa 0,0 l/m 1,4 km/h (1 Bft) W-SW 247 0 min 0,0 UV-I 14,3 C 17,6 C 3,2 km/h (1 Bft)
19.10.2014 20:40 18,3 C 26,6 C 17,2 C 18,1 C 17,6 C 0,0 C 78 % 83 % 0 % 1015,6 hPa 0,0 l/m 1,4 km/h (1 Bft) S 180 0 min 0,0 UV-I 14,4 C 17,6 C 3,1 km/h (1 Bft)
19.10.2014 20:45 18,3 C 26,6 C 17,2 C 18,1 C 17,6 C 0,0 C 78 % 83 % 0 % 1015,6 hPa 0,0 l/m 1,6 km/h (1 Bft) S-SO 157 0 min 0,0 UV-I 14,4 C 17,6 C 1,6 km/h (1 Bft)
19.10.2014 20:50 18,2 C 26,6 C 17,3 C 18,0 C 17,6 C 0,0 C 78 % 83 % 0 % 1015,3 hPa 0,0 l/m 1,4 km/h (1 Bft) SW 225 0 min 0,0 UV-I 14,3 C 17,6 C 0,0 km/h (0 Bft)
19.10.2014 20:55 18,2 C 26,6 C 17,3 C 18,0 C 17,6 C 0,0 C 78 % 83 % 0 % 1015,3 hPa 0,0 l/m 1,3 km/h (1 Bft) O-SO 112 0 min 0,0 UV-I 14,3 C 17,6 C 1,6 km/h (1 Bft)
19.10.2014 21:00 18,3 C 26,6 C 17,3 C 18,1 C 17,6 C 0,0 C 78 % 83 % 0 % 1015,3 hPa 0,0 l/m 1,4 km/h (1 Bft) NO 45 0 min 0,0 UV-I 14,4 C 17,6 C 2,1 km/h (1 Bft)
19.10.2014 21:05 18,3 C 26,6 C 17,3 C 18,1 C 17,6 C 0,0 C 78 % 83 % 0 % 1015,3 hPa 0,0 l/m 1,0 km/h (0 Bft) S 180 0 min 0,0 UV-I 14,4 C 17,6 C 1,8 km/h (1 Bft)
19.10.2014 21:10 18,3 C 26,6 C 17,2 C 18,1 C 17,6 C 0,0 C 78 % 83 % 0 % 1015,2 hPa 0,0 l/m 1,1 km/h (1 Bft) S 180 0 min 0,0 UV-I 14,4 C 17,6 C 4,3 km/h (1 Bft)
19.10.2014 21:15 18,3 C 26,6 C 17,2 C 18,0 C 17,5 C 0,0 C 79 % 83 % 0 % 1015,2 hPa 0,0 l/m 1,3 km/h (1 Bft) N-NO 22 0 min 0,0 UV-I 14,6 C 17,5 C 2,6 km/h (1 Bft)
19.10.2014 21:20 18,3 C 26,6 C 17,2 C 18,0 C 17,5 C 0,0 C 79 % 84 % 0 % 1015,2 hPa 0,0 l/m 1,6 km/h (1 Bft) N-NO 22 0 min 0,0 UV-I 14,6 C 17,5 C 4,5 km/h (1 Bft)
19.10.2014 21:25 18,4 C 26,6 C 17,2 C 18,1 C 17,6 C 0,0 C 79 % 84 % 0 % 1015,2 hPa 0,0 l/m 2,3 km/h (1 Bft) W-SW 247 0 min 0,0 UV-I 14,7 C 17,6 C 9,8 km/h (2 Bft)
19.10.2014 21:30 18,3 C 26,6 C 17,3 C 18,1 C 17,6 C 0,0 C 79 % 83 % 0 % 1014,9 hPa 0,0 l/m 2,6 km/h (1 Bft) SO 135 0 min 0,0 UV-I 14,6 C 17,6 C 3,9 km/h (1 Bft)
19.10.2014 21:35 18,3 C 26,6 C 17,2 C 18,0 C 17,5 C 0,0 C 79 % 84 % 0 % 1014,9 hPa 0,0 l/m 1,9 km/h (1 Bft) S-SW 202 0 min 0,0 UV-I 14,6 C 17,5 C 2,9 km/h (1 Bft)
19.10.2014 21:42 18,1 C 26,6 C 17,1 C 17,9 C 17,4 C 0,0 C 79 % 84 % 0 % 1014,9 hPa 0,0 l/m 2,4 km/h (1 Bft) N 0 0 min 0,0 UV-I 14,4 C 17,4 C 5,0 km/h (1 Bft)
19.10.2014 21:45 18,1 C 26,6 C 17,2 C 17,9 C 17,5 C 0,0 C 79 % 84 % 0 % 1014,9 hPa 0,0 l/m 3,2 km/h (1 Bft) S-SW 202 0 min 0,0 UV-I 14,4 C 17,5 C 2,9 km/h (1 Bft)
19.10.2014 21:50 18,1 C 26,6 C 17,1 C 17,9 C 17,5 C 0,0 C 79 % 84 % 0 % 1014,9 hPa 0,0 l/m 3,2 km/h (1 Bft) W 270 0 min 0,0 UV-I 14,4 C 17,5 C 8,0 km/h (2 Bft)
19.10.2014 21:55 18,0 C 26,7 C 17,0 C 17,8 C 17,5 C 0,0 C 79 % 84 % 0 % 1014,9 hPa 0,0 l/m 3,2 km/h (1 Bft) NO 45 0 min 0,0 UV-I 14,3 C 17,5 C 3,2 km/h (1 Bft)
19.10.2014 22:00 18,1 C 26,7 C 17,1 C 17,9 C 17,5 C 0,0 C 79 % 84 % 0 % 1014,9 hPa 0,0 l/m 3,5 km/h (1 Bft) O 90 0 min 0,0 UV-I 14,4 C 17,5 C 1,8 km/h (1 Bft)
19.10.2014 22:05 18,1 C 26,7 C 17,1 C 17,9 C 17,5 C 0,0 C 79 % 84 % 0 % 1014,9 hPa 0,0 l/m 3,4 km/h (1 Bft) S 180 0 min 0,0 UV-I 14,4 C 17,5 C 6,3 km/h (2 Bft)
19.10.2014 22:10 18,1 C 26,7 C 17,2 C 17,9 C 17,5 C 0,0 C 79 % 84 % 0 % 1014,8 hPa 0,0 l/m 3,9 km/h (1 Bft) SO 135 0 min 0,0 UV-I 14,4 C 17,5 C 5,8 km/h (2 Bft)
19.10.2014 22:15 18,1 C 26,7 C 17,2 C 17,9 C 17,6 C 0,0 C 79 % 84 % 0 % 1014,8 hPa 0,0 l/m 4,5 km/h (1 Bft) W-SW 247 0 min 0,0 UV-I 14,4 C 17,6 C 6,4 km/h (2 Bft)
19.10.2014 22:20 18,2 C 26,7 C 17,2 C 18,0 C 17,7 C 0,0 C 79 % 84 % 0 % 1014,8 hPa 0,0 l/m 6,0 km/h (2 Bft) NW 315 0 min 0,0 UV-I 14,5 C 17,7 C 12,7 km/h (3 Bft)
19.10.2014 22:25 18,2 C 26,7 C 17,2 C 18,1 C 17,8 C 0,0 C 79 % 84 % 0 % 1014,8 hPa 0,0 l/m 6,6 km/h (2 Bft) W-SW 247 0 min 0,0 UV-I 14,5 C 17,8 C 6,3 km/h (2 Bft)
19.10.2014 22:30 18,1 C 26,7 C 17,1 C 18,0 C 17,7 C 0,0 C 79 % 84 % 0 % 1014,9 hPa 0,0 l/m 5,6 km/h (1 Bft) S 180 0 min 0,0 UV-I 14,4 C 17,7 C 6,6 km/h (2 Bft)
19.10.2014 22:35 18,1 C 26,7 C 17,0 C 17,9 C 17,6 C 0,0 C 79 % 84 % 0 % 1014,9 hPa 0,0 l/m 5,3 km/h (1 Bft) S-SW 202 0 min 0,0 UV-I 14,4 C 17,6 C 2,3 km/h (1 Bft)
19.10.2014 22:40 18,0 C 26,7 C 17,1 C 17,8 C 17,5 C 0,0 C 80 % 85 % 0 % 1014,9 hPa 0,0 l/m 4,5 km/h (1 Bft) SW 225 0 min 0,0 UV-I 14,5 C 17,5 C 6,1 km/h (2 Bft)
19.10.2014 22:45 17,9 C 26,7 C 16,9 C 17,7 C 17,4 C 0,0 C 80 % 85 % 0 % 1014,9 hPa 0,0 l/m 3,4 km/h (1 Bft) S 180 0 min 0,0 UV-I 14,4 C 17,4 C 2,9 km/h (1 Bft)
19.10.2014 22:50 17,9 C 26,7 C 16,9 C 17,7 C 17,3 C 0,0 C 80 % 85 % 0 % 1015,1 hPa 0,0 l/m 4,0 km/h (1 Bft) SO 135 0 min 0,0 UV-I 14,4 C 17,3 C 10,5 km/h (2 Bft)
19.10.2014 22:55 17,9 C 26,7 C 16,9 C 17,7 C 17,3 C 0,0 C 80 % 85 % 0 % 1015,1 hPa 0,0 l/m 4,7 km/h (1 Bft) S-SW 202 0 min 0,0 UV-I 14,4 C 17,3 C 5,3 km/h (1 Bft)
19.10.2014 23:00 17,9 C 26,7 C 16,9 C 17,7 C 17,2 C 0,0 C 81 % 85 % 0 % 1015,1 hPa 0,0 l/m 3,7 km/h (1 Bft) W 270 0 min 0,0 UV-I 14,6 C 17,2 C 3,1 km/h (1 Bft)
19.10.2014 23:05 17,7 C 26,7 C 16,9 C 17,5 C 17,1 C 0,0 C 81 % 85 % 0 % 1015,1 hPa 0,0 l/m 3,1 km/h (1 Bft) N-NW 337 0 min 0,0 UV-I 14,4 C 17,1 C 4,2 km/h (1 Bft)
19.10.2014 23:10 17,7 C 26,7 C 16,8 C 17,5 C 17,1 C 0,0 C 81 % 85 % 0 % 1015,0 hPa 0,0 l/m 2,6 km/h (1 Bft) S-SO 157 0 min 0,0 UV-I 14,4 C 17,1 C 5,3 km/h (1 Bft)
19.10.2014 23:15 17,7 C 26,7 C 16,7 C 17,5 C 17,0 C 0,0 C 81 % 86 % 0 % 1015,0 hPa 0,0 l/m 2,6 km/h (1 Bft) W 270 0 min 0,0 UV-I 14,4 C 17,0 C 3,9 km/h (1 Bft)
19.10.2014 23:20 17,6 C 26,7 C 16,7 C 17,4 C 16,9 C 0,0 C 81 % 86 % 0 % 1015,0 hPa 0,0 l/m 1,9 km/h (1 Bft) S 180 0 min 0,0 UV-I 14,3 C 16,9 C 2,9 km/h (1 Bft)
19.10.2014 23:25 17,6 C 26,7 C 16,7 C 17,3 C 16,8 C 0,0 C 81 % 86 % 0 % 1015,0 hPa 0,0 l/m 1,8 km/h (1 Bft) SO 135 0 min 0,0 UV-I 14,3 C 16,8 C 4,2 km/h (1 Bft)
19.10.2014 23:30 17,6 C 26,7 C 16,7 C 17,3 C 16,8 C 0,0 C 82 % 86 % 0 % 1015,2 hPa 0,0 l/m 1,8 km/h (1 Bft) S 180 0 min 0,0 UV-I 14,5 C 16,8 C 3,2 km/h (1 Bft)
19.10.2014 23:35 17,5 C 26,7 C 16,6 C 17,3 C 16,8 C 0,0 C 82 % 85 % 0 % 1015,2 hPa 0,0 l/m 1,8 km/h (1 Bft) N-NO 22 0 min 0,0 UV-I 14,4 C 16,8 C 4,8 km/h (1 Bft)
19.10.2014 23:40 17,5 C 26,7 C 16,7 C 17,3 C 16,8 C 0,0 C 82 % 86 % 0 % 1015,2 hPa 0,0 l/m 1,8 km/h (1 Bft) W-SW 247 0 min 0,0 UV-I 14,4 C 16,8 C 4,3 km/h (1 Bft)
19.10.2014 23:45 17,5 C 26,7 C 16,6 C 17,3 C 16,8 C 0,0 C 82 % 86 % 0 % 1015,2 hPa 0,0 l/m 2,1 km/h (1 Bft) W 270 0 min 0,0 UV-I 14,4 C 16,8 C 4,0 km/h (1 Bft)
19.10.2014 23:50 17,4 C 26,8 C 16,7 C 17,2 C 16,8 C 0,0 C 82 % 86 % 0 % 1014,5 hPa 0,0 l/m 1,6 km/h (1 Bft) O-SO 112 0 min 0,0 UV-I 14,3 C 16,8 C 1,9 km/h (1 Bft)
19.10.2014 23:55 17,5 C 26,8 C 16,6 C 17,2 C 16,7 C 0,0 C 82 % 86 % 0 % 1014,5 hPa 0,0 l/m 1,1 km/h (1 Bft) N-NW 337 0 min 0,0 UV-I 14,4 C 16,7 C 0,0 km/h (0 Bft)
_ Min-Zeit 04:55 11:10 06:10 04:50 04:50 15:00 16:00 15:55 00:00 23:50 - 00:00 - - - 00:00 04:55 04:50 00:00
Minimum _ 6,0 C 24,8 C 7,5 C 6,6 C 6,6 C 0,0 C 63 % 73 % 0 % 1014,5 hPa - 0,0 km/h (0 Bft) - - - 0,0 UV-I 4,6 C 6,6 C 0,0 km/h (0 Bft)
_ Max-Zeit 15:50 23:50 15:50 15:55 15:55 13:10 10:10 00:10 12:30 00:00 00:00 16:10 - - 12:55 00:00 15:35 15:55 17:55
Maximum _ 23,2 C 26,8 C 21,2 C 26,7 C 26,7 C 5,9 C 94 % 92 % 100 % 1022,8 hPa 0,0 l/m 6,8 km/h
W-SW (2 Bft)
- - 10 min 0,0 UV-I 16,9 C 26,7 C 19,0 km/h
W (3 Bft)
Durchschnitt _ 13,8 C 25,8 C 13,9 C 14,9 C 14,7 C 1,1 C 83 % 86 % 22 % 1018,9 hPa #0,0 l/m 1,5 km/h (1 Bft) S-SO - #3:27 h 0,0 UV-I 10,8 C 14,7 C 2,2 km/h (1 Bft)
2014 www.wetterstation-wechselburg.de